Flight Track Log - Related Links

Times and Time Zones

All times are in EDT time to prevent confusion due to time zone crossing. See the SWA896 flight status page for this flight to view local times or setup timezone preferences in your user account.


Time Position Orientation Groundspeed Altitude Reporting Facility
EDT Latitude Longitude Course Direction KTS MPH feet Rate Location/Type
Sun 09:00:52 AM 40.8167 -73.9167 259° West 178 205 3,100  Level New York TRACON
Sun 09:01:40 AM 40.8667 -73.9500 333° Northwest 186 214 5,500 2,944 Climbing New York TRACON
Sun 09:02:40 AM 40.9000 -74.0000 311° West 231 266 8,400 1,750 Climbing New York TRACON
Sun 09:03:40 AM 40.9000 -74.0667 270° West 218 251 9,000 350 Climbing New York TRACON
Sun 09:04:40 AM 40.8833 -74.1500 255° West 218 251 9,100 1,550 Climbing New York TRACON
Sun 09:05:40 AM 40.8500 -74.2167 237° Southwest 227 261 12,100 3,200 Climbing New York TRACON
Sun 09:06:00 AM 40.6396 -74.5763 259° West  Level FlightAware Approximate
Sun 09:06:40 AM 40.8667 -74.3000 285° West 236 272 15,500  Level New York TRACON
Sun 09:08:40 AM 40.8261 -74.4842 254° West 271 312 17,300 1,333 Climbing New York Center
Sun 09:09:40 AM 40.7794 -74.5747 236° Southwest 303 349 19,500 2,500 Climbing New York Center
Sun 09:10:40 AM 40.7325 -74.6789 239° Southwest 327 376 22,300 2,902 Climbing New York Center
Sun 09:11:42 AM 40.6811 -74.7800 236° Southwest 336 387 25,400 2,250 Climbing New York Center
Sun 09:12:40 AM 40.6294 -74.8836 237° Southwest 336 387 26,800 1,350 Climbing New York Center
Sun 09:13:42 AM 40.5733 -74.9978 237° Southwest 357 411 28,100 2,200 Climbing New York Center
Sun 09:14:40 AM 40.5111 -75.1086 234° Southwest 369 425 31,200 2,773 Climbing New York Center
Sun 09:15:41 AM 40.4514 -75.2031 230° Southwest 363 418 33,600 1,850 Climbing New York Center
Sun 09:16:40 AM 40.3892 -75.2997 230° Southwest 351 404 34,900 1,261 Climbing New York Center
Sun 09:17:40 AM 40.3292 -75.3967 231° Southwest 351 404 36,100 1,091 Climbing New York Center
Sun 09:18:41 AM 40.2669 -75.4958 231° Southwest 351 404 37,100 800 Climbing New York Center
Sun 09:19:40 AM 40.2067 -75.5950 232° Southwest 357 411 37,700 450 Climbing New York Center
Sun 09:20:41 AM 40.1519 -75.7053 237° Southwest 362 417 38,000 150 Climbing New York Center
Sun 09:21:40 AM 40.0972 -75.8156 237° Southwest 367 422 38,000  Level New York Center
Sun 09:22:39 AM 40.0303 -75.9192 230° Southwest 372 428 38,000  Level New York Center
Sun 09:23:40 AM 39.9653 -76.0253 231° Southwest 372 428 38,000  Level New York Center
Sun 09:24:39 AM 39.9003 -76.1233 229° Southwest 377 434 38,000  Level New York Center
Sun 09:25:40 AM 39.8308 -76.2314 230° Southwest 382 440 38,000  Level New York Center
Sun 09:27:58 AM 39.6750 -76.4678 229° Southwest 373 429 38,000  Level Washington Center
Sun 09:28:58 AM 39.6117 -76.5667 230° Southwest 373 429 38,000  Level Washington Center
Sun 09:29:58 AM 39.5483 -76.6653 230° Southwest 373 429 38,000  Level Washington Center
Sun 09:31:00 AM 39.4850 -76.7611 229° Southwest 368 423 38,000  Level Washington Center
Sun 09:31:58 AM 39.4214 -76.8594 230° Southwest 363 418 38,000  Level Washington Center
Sun 09:32:58 AM 39.3558 -76.9550 228° Southwest 363 418 38,000  Level Washington Center
Sun 09:33:59 AM 39.2942 -77.0531 231° Southwest 358 412 38,000  Level Washington Center
Sun 09:35:00 AM 39.2328 -77.1483 230° Southwest 358 412 38,000 -151 Level Washington Center
Sun 09:35:58 AM 39.1667 -77.2461 229° Southwest 358 412 37,700 -814 Descending Washington Center
Sun 09:36:58 AM 39.1072 -77.3383 230° Southwest 353 406 36,400 -1,140 Descending Washington Center
Sun 09:37:59 AM 39.0517 -77.4200 229° Southwest 339 390 35,400 -992 Descending Washington Center
Sun 09:38:59 AM 38.9983 -77.5014 230° Southwest 320 368 34,400 -694 Descending Washington Center
Sun 09:40:00 AM 38.9428 -77.5853 230° Southwest 308 354 34,000 -198 Descending Washington Center
Sun 09:41:00 AM 38.8914 -77.6639 230° Southwest 308 354 34,000  Level Washington Center
Sun 09:41:58 AM 38.8358 -77.7450 229° Southwest 320 368 34,000  Level Washington Center
Sun 09:42:59 AM 38.7672 -77.8469 229° Southwest 339 390 34,000  Level Washington Center
Sun 09:43:59 AM 38.7050 -77.9381 229° Southwest 344 396 34,000  Level Washington Center
Sun 09:45:00 AM 38.6447 -78.0264 229° Southwest 344 396 34,000  Level Washington Center
Sun 09:45:58 AM 38.5847 -78.1175 230° Southwest 344 396 34,000  Level Washington Center
Sun 09:46:58 AM 38.5222 -78.2056 228° Southwest 344 396 34,000  Level Washington Center
Sun 09:48:00 AM 38.4619 -78.2964 230° Southwest 344 396 34,000  Level Washington Center
Sun 09:49:00 AM 38.3994 -78.3867 229° Southwest 344 396 34,000  Level Washington Center
Sun 09:49:58 AM 38.3389 -78.4772 230° Southwest 344 396 34,000  Level Washington Center
Sun 09:50:58 AM 38.2761 -78.5672 228° Southwest 344 396 34,000  Level Washington Center
Sun 09:51:59 AM 38.2175 -78.6575 230° Southwest 344 396 34,000  Level Washington Center
Sun 09:53:00 AM 38.1569 -78.7475 229° Southwest 344 396 34,000  Level Washington Center
Sun 09:54:01 AM 38.0939 -78.8397 229° Southwest 344 396 34,000  Level Washington Center
Sun 09:54:58 AM 38.0331 -78.9267 228° Southwest 350 403 34,000  Level Washington Center
Sun 09:55:59 AM 37.9636 -79.0264 229° Southwest 344 396 34,000  Level Washington Center
Sun 09:56:59 AM 37.8983 -79.1156 227° Southwest 349 402 34,000  Level Washington Center
Sun 09:57:59 AM 37.8372 -79.2047 229° Southwest 349 402 34,000  Level Washington Center
Sun 09:58:59 AM 37.7764 -79.2833 226° Southwest 349 402 34,000  Level Washington Center
Sun 10:00:00 AM 37.7047 -79.3794 227° Southwest 349 402 34,000  Level Washington Center
Sun 10:01:00 AM 37.6392 -79.4681 227° Southwest 354 407 34,000  Level Washington Center
Sun 10:01:58 AM 37.5781 -79.5567 229° Southwest 354 407 34,000  Level Washington Center
Sun 10:02:59 AM 37.5103 -79.6472 227° Southwest 354 407 34,000  Level Washington Center
Sun 10:04:00 AM 37.4469 -79.7328 227° Southwest 354 407 34,000  Level Washington Center
Sun 10:04:58 AM 37.3875 -79.8186 229° Southwest 362 417 34,000  Level Washington Center
Sun 10:06:46 AM 37.2692 -79.9758 227° Southwest 353 406 34,000  Level Atlanta Center
Sun 10:07:46 AM 37.1972 -80.0706 226° Southwest 346 398 34,000  Level Atlanta Center
Sun 10:08:46 AM 37.1314 -80.1600 227° Southwest 346 398 34,000  Level Atlanta Center
Sun 10:09:46 AM 37.0672 -80.2464 227° Southwest 346 398 34,000  Level Atlanta Center
Sun 10:10:46 AM 37.0033 -80.3325 227° Southwest 346 398 34,000  Level Atlanta Center
Sun 10:11:46 AM 36.9453 -80.4106 227° Southwest 346 398 34,000  Level Atlanta Center
Sun 10:12:46 AM 36.8831 -80.4964 228° Southwest 346 398 34,000  Level Atlanta Center
Sun 10:13:46 AM 36.8147 -80.5850 226° Southwest 346 398 34,000  Level Atlanta Center
Sun 10:14:46 AM 36.7464 -80.6761 227° Southwest 346 398 34,000  Level Atlanta Center
Sun 10:15:46 AM 36.6778 -80.7669 227° Southwest 346 398 34,000  Level Atlanta Center
Sun 10:16:46 AM 36.6156 -80.8522 228° Southwest 346 398 34,000  Level Atlanta Center
Sun 10:17:46 AM 36.5489 -80.9403 227° Southwest 346 398 34,000  Level Atlanta Center
Sun 10:18:46 AM 36.4822 -81.0281 227° Southwest 352 405 34,000  Level Atlanta Center
Sun 10:19:46 AM 36.4175 -81.1131 227° Southwest 352 405 34,000  Level Atlanta Center
Sun 10:20:46 AM 36.3528 -81.2006 227° Southwest 352 405 34,000  Level Atlanta Center
Sun 10:21:46 AM 36.2839 -81.2878 226° Southwest 352 405 34,000  Level Atlanta Center
Sun 10:22:46 AM 36.2192 -81.3750 227° Southwest 352 405 34,000  Level Atlanta Center
Sun 10:23:46 AM 36.1542 -81.4619 227° Southwest 352 405 34,000  Level Atlanta Center
Sun 10:24:46 AM 36.0872 -81.5464 226° Southwest 352 405 34,000  Level Atlanta Center
Sun 10:25:46 AM 36.0364 -81.6172 228° Southwest 352 405 34,000  Level Atlanta Center
Sun 10:26:46 AM 35.9550 -81.7197 226° Southwest 352 405 34,000  Level Atlanta Center
Sun 10:27:46 AM 35.8958 -81.7958 226° Southwest 352 405 34,000  Level Atlanta Center
Sun 10:28:46 AM 35.8286 -81.8797 225° Southwest 352 405 34,000  Level Atlanta Center
Sun 10:29:46 AM 35.7653 -81.9658 228° Southwest 349 402 34,000  Level Atlanta Center
Sun 10:30:46 AM 35.6939 -82.0544 225° Southwest 349 402 34,000  Level Atlanta Center
Sun 10:31:46 AM 35.6264 -82.1406 226° Southwest 354 407 34,000  Level Atlanta Center
Sun 10:32:46 AM 35.5589 -82.2289 227° Southwest 354 407 34,000  Level Atlanta Center
Sun 10:33:46 AM 35.4892 -82.3119 224° Southwest 354 407 34,000 -300 Level Atlanta Center
Sun 10:34:46 AM 35.4236 -82.4000 228° Southwest 354 407 33,400 -800 Descending Atlanta Center
Sun 10:35:46 AM 35.3536 -82.4828 224° Southwest 354 407 32,400 -950 Descending Atlanta Center
Sun 10:36:46 AM 35.2819 -82.5733 226° Southwest 359 413 31,500 -950 Descending Atlanta Center
Sun 10:37:46 AM 35.2139 -82.6558 225° Southwest 359 413 30,500 -1,000 Descending Atlanta Center
Sun 10:38:46 AM 35.1439 -82.7433 226° Southwest 359 413 29,500 -950 Descending Atlanta Center
Sun 10:39:46 AM 35.0717 -82.8231 222° Southwest 351 404 28,600 -1,050 Descending Atlanta Center
Sun 10:40:46 AM 34.9869 -82.9081 219° Southwest 356 410 27,400 -1,000 Descending Atlanta Center
Sun 10:41:46 AM 34.9167 -82.9825 221° Southwest 361 415 26,600 -900 Descending Atlanta Center
Sun 10:42:46 AM 34.8400 -83.0569 219° Southwest 366 421 25,600 -1,000 Descending Atlanta Center
Sun 10:43:46 AM 34.7656 -83.1361 221° Southwest 366 421 24,600 -1,000 Descending Atlanta Center
Sun 10:44:46 AM 34.6889 -83.2153 220° Southwest 366 421 23,600 -1,000 Descending Atlanta Center
Sun 10:45:46 AM 34.6122 -83.2967 221° Southwest 361 415 22,600 -1,000 Descending Atlanta Center
Sun 10:46:46 AM 34.5375 -83.3756 221° Southwest 366 421 21,600 -1,000 Descending Atlanta Center
Sun 10:47:46 AM 34.4650 -83.4517 221° Southwest 361 415 20,600 -1,000 Descending Atlanta Center
Sun 10:48:46 AM 34.3858 -83.5353 221° Southwest 356 410 19,600 -1,000 Descending Atlanta Center
Sun 10:49:46 AM 34.3131 -83.6061 219° Southwest 356 410 18,600 -1,050 Descending Atlanta Center
Sun 10:50:46 AM 34.2425 -83.6794 221° Southwest 348 400 17,500 -1,100 Descending Atlanta Center
Sun 10:51:46 AM 34.1717 -83.7500 220° Southwest 341 392 16,400 -1,650 Descending Atlanta Center
Sun 10:52:46 AM 34.1072 -83.8231 223° Southwest 328 377 14,200 -1,200 Descending Atlanta Center
Sun 10:53:46 AM 34.0447 -83.8883 221° Southwest 314 361 14,000 -100 Descending Atlanta Center
Sun 10:54:46 AM 33.9883 -83.9511 223° Southwest 291 335 14,000  Level Atlanta Center
Sun 10:55:46 AM 33.9217 -84.0036 213° Southwest 286 329 14,000  Level Atlanta Center
Sun 10:56:46 AM 33.8569 -84.0489 210° Southwest 297 342 14,000  Level Atlanta Center
Sun 10:57:46 AM 33.7858 -84.1014 212° Southwest 303 349 14,000  Level Atlanta Center
Sun 10:58:46 AM 33.7336 -84.1611 224° Southwest 282 325 14,000 -350 Level Atlanta Center
Sun 10:59:46 AM 33.7314 -84.2411 268° West 234 269 13,300 -1,100 Descending Atlanta Center
Sun 11:00:46 AM 33.7292 -84.3311 268° West 243 280 11,800 -1,614 Descending Atlanta Center
Sun 11:02:11 AM 33.7333 -84.4333 273° West 243 280 9,400 -1,655 Descending Atlanta TRACON
Sun 11:03:11 AM 33.7333 -84.5167 270° West 235 270 7,800 -1,450 Descending Atlanta TRACON
Sun 11:04:11 AM 33.7333 -84.6000 270° West 231 266 6,500 -1,150 Descending Atlanta TRACON
Sun 11:05:11 AM 33.7333 -84.6667 270° West 229 264 5,500 -476 Descending Atlanta TRACON
Sun 11:06:17 AM 33.7333 -84.7667 270° West 222 255 5,500  Level Atlanta TRACON
Sun 11:07:17 AM 33.7333 -84.8333 270° West 207 238 5,500 50 Level Atlanta TRACON
Sun 11:08:17 AM 33.7333 -84.9000 270° West 186 214 5,600  Climbing Atlanta TRACON
Sun 11:09:11 AM 33.6833 -84.9000 180° South 206 237 5,500 -158 Descending Atlanta TRACON
Sun 11:10:11 AM 33.6500 -84.8667 140° Southeast 214 246 5,300 -250 Descending Atlanta TRACON
Sun 11:11:11 AM 33.6500 -84.7833 90° East 222 255 5,000 -150 Descending Atlanta TRACON
Sun 11:12:11 AM 33.6500 -84.7167 90° East 224 258 5,000 -350 Level Atlanta TRACON
Sun 11:13:11 AM 33.6500 -84.6333 90° East 231 266 4,300 -900 Descending Atlanta TRACON
Sun 11:14:11 AM 33.6500 -84.5667 90° East 192 221 3,200 -950 Descending Atlanta TRACON
Sun 11:15:11 AM 33.6500 -84.5167 90° East 144 166 2,400 -750 Descending Atlanta TRACON
Sun 11:16:11 AM 33.6500 -84.4667 90° East 126 145 1,700 -700 Descending Atlanta TRACON

Login

Don't have an account? Register now (free) for customized features, flight alerts, and more!